KLFI/LFI METAR and TAF weather

Enter ICAO airport designator
Station Type Date Time Source
KLFI METAR 2020/11/25 21:56 UTC NOAA

KLFI 252156Z 15008KT 10SM BKN250 17/13 A3023 RMK AO2A SLP243 T01690128 $


Station Type Date Time Source
KLFI Decoded METAR 2020/11/25 21:56 UTC NOAA

Langley Air Force Base, VA, United States (KLFI) 37-05N 076-21W 6M
Nov 25, 2020 - 04:56 PM EST / 2020.11.25 2156 UTC
Wind: from the SSE (150 degrees) at 9 MPH (8 KT):0
Visibility: 10 mile(s):0
Sky conditions: mostly cloudy
Temperature: 62.4 F (16.9 C)
Dew Point: 55.0 F (12.8 C)
Relative Humidity: 76%
Pressure (altimeter): 30.23 in. Hg (1023 hPa)
ob: KLFI 252156Z 15008KT 10SM BKN250 17/13 A3023 RMK AO2A SLP243 T01690128
cycle: 22

Station Type Date Time Source
KLFI TAF 2020/11/25 18:09 UTC NOAA

TAF TAF KLFI 251800Z 2518/2624 18009KT 9999 FEW070 BKN250 QNH3030INS
BECMG 2520/2521 17009KT 9999 SCT070 OVC240 QNH3024INS
BECMG 2601/2602 17012KT 9999 SCT040 BKN070 OVC220 QNH3012INS
BECMG 2608/2609 18010G15KT 8000 -SHRA SCT012 BKN020 OVC040 QNH3010INS
BECMG 2611/2612 18012G18KT 6000 -SHRA SCT004 OVC012 QNH3005INS
BECMG 2615/2616 19012G18KT 3200 SHRA OVC004 QNH3000INS
TEMPO 2617/2623 6000 -SHRA SCT005 OVC020 TX22/2618Z TN11/2611Z

Example: see airport list